Mastaga, Azerbaijan
Current Conditions -  °F | °C
As of 5:30 PM on Thursday 29 Jan 2015 (Local Time) from UBBB Reporting Station
Scattered Clouds Scattered Clouds  
Wind Chill: 41°   Ceiling: Unl
Heat Index: 46°   Visibility: 6mi
Dew Point: 39°   Wind: 12mph
Humidity: 76%   Direction: 330°NNW
Pressure: 29.88"   Gusts: NA
Location:  40.54°N, 49.99°E
Report Text: UBBB 291230Z 33010KT 9999 SCT018 08/04 Q1012 88CLRD70NOSIG
Loading
Personal Weather Stations






























Interactive Weather Map New forecast layout! Learn more

10-Day Weather Forecast

Advertisements
Track Severe Weather on mobile